sensor_id;sensor_type;location;lat;lon;timestamp;temperature;humidity
2867;DHT22;1441;48.886;8.728;2022-08-03T00:01:47;21.90;70.70
2867;DHT22;1441;48.886;8.728;2022-08-03T00:04:12;21.90;70.70
2867;DHT22;1441;48.886;8.728;2022-08-03T00:06:38;21.80;71.20
2867;DHT22;1441;48.886;8.728;2022-08-03T00:09:04;21.60;71.60
2867;DHT22;1441;48.886;8.728;2022-08-03T00:11:30;21.60;71.80
2867;DHT22;1441;48.886;8.728;2022-08-03T00:13:56;21.50;72.00
2867;DHT22;1441;48.886;8.728;2022-08-03T00:16:21;21.60;71.80
2867;DHT22;1441;48.886;8.728;2022-08-03T00:18:49;21.70;71.60
2867;DHT22;1441;48.886;8.728;2022-08-03T00:21:14;21.70;71.40
2867;DHT22;1441;48.886;8.728;2022-08-03T00:23:40;21.70;71.80
2867;DHT22;1441;48.886;8.728;2022-08-03T00:26:06;21.70;71.90
2867;DHT22;1441;48.886;8.728;2022-08-03T00:28:31;21.60;72.40
2867;DHT22;1441;48.886;8.728;2022-08-03T00:30:57;21.50;72.60
2867;DHT22;1441;48.886;8.728;2022-08-03T00:33:22;21.60;72.60
2867;DHT22;1441;48.886;8.728;2022-08-03T00:35:48;21.60;72.50
2867;DHT22;1441;48.886;8.728;2022-08-03T00:38:14;21.60;72.70
2867;DHT22;1441;48.886;8.728;2022-08-03T00:40:39;21.60;72.80
2867;DHT22;1441;48.886;8.728;2022-08-03T00:43:06;21.50;73.10
2867;DHT22;1441;48.886;8.728;2022-08-03T00:45:37;21.40;73.20
2867;DHT22;1441;48.886;8.728;2022-08-03T00:48:05;21.30;73.50
2867;DHT22;1441;48.886;8.728;2022-08-03T00:50:33;21.30;73.70
2867;DHT22;1441;48.886;8.728;2022-08-03T00:53:00;21.20;73.90
2867;DHT22;1441;48.886;8.728;2022-08-03T00:55:27;21.10;74.20
2867;DHT22;1441;48.886;8.728;2022-08-03T00:58:01;21.00;74.50
2867;DHT22;1441;48.886;8.728;2022-08-03T01:00:31;21.00;74.60
2867;DHT22;1441;48.886;8.728;2022-08-03T01:02:57;21.00;74.60
2867;DHT22;1441;48.886;8.728;2022-08-03T01:05:23;20.90;74.90
2867;DHT22;1441;48.886;8.728;2022-08-03T01:08:05;20.90;75.00
2867;DHT22;1441;48.886;8.728;2022-08-03T01:13:28;20.90;75.00
2867;DHT22;1441;48.886;8.728;2022-08-03T01:16:01;21.00;74.80
2867;DHT22;1441;48.886;8.728;2022-08-03T01:18:35;21.10;74.20
2867;DHT22;1441;48.886;8.728;2022-08-03T01:21:09;21.00;74.70
2867;DHT22;1441;48.886;8.728;2022-08-03T01:32:22;21.00;74.70
2867;DHT22;1441;48.886;8.728;2022-08-03T01:34:56;21.00;74.40
2867;DHT22;1441;48.886;8.728;2022-08-03T01:37:27;21.00;74.40
2867;DHT22;1441;48.886;8.728;2022-08-03T01:39:55;20.80;74.60
2867;DHT22;1441;48.886;8.728;2022-08-03T01:42:23;20.70;74.70
2867;DHT22;1441;48.886;8.728;2022-08-03T01:44:50;20.60;74.60
2867;DHT22;1441;48.886;8.728;2022-08-03T01:47:19;20.50;74.80
2867;DHT22;1441;48.886;8.728;2022-08-03T01:49:45;20.60;75.00
2867;DHT22;1441;48.886;8.728;2022-08-03T01:52:14;20.60;75.10
2867;DHT22;1441;48.886;8.728;2022-08-03T01:54:43;20.50;75.00
2867;DHT22;1441;48.886;8.728;2022-08-03T01:57:10;20.40;75.20
2867;DHT22;1441;48.886;8.728;2022-08-03T01:59:36;20.30;75.60
2867;DHT22;1441;48.886;8.728;2022-08-03T02:02:06;20.30;75.60
2867;DHT22;1441;48.886;8.728;2022-08-03T02:04:34;20.40;75.50
2867;DHT22;1441;48.886;8.728;2022-08-03T02:07:00;20.50;75.50
2867;DHT22;1441;48.886;8.728;2022-08-03T02:09:27;20.40;75.50
2867;DHT22;1441;48.886;8.728;2022-08-03T02:11:54;20.30;75.50
2867;DHT22;1441;48.886;8.728;2022-08-03T02:14:21;20.40;75.30
2867;DHT22;1441;48.886;8.728;2022-08-03T02:16:48;20.50;75.10
2867;DHT22;1441;48.886;8.728;2022-08-03T02:19:15;20.50;75.20
2867;DHT22;1441;48.886;8.728;2022-08-03T02:21:44;20.40;75.50
2867;DHT22;1441;48.886;8.728;2022-08-03T02:24:10;20.30;75.60
2867;DHT22;1441;48.886;8.728;2022-08-03T02:26:37;20.20;75.80
2867;DHT22;1441;48.886;8.728;2022-08-03T02:29:12;20.20;76.10
2867;DHT22;1441;48.886;8.728;2022-08-03T02:31:40;20.20;76.00
2867;DHT22;1441;48.886;8.728;2022-08-03T02:34:11;20.20;76.00
2867;DHT22;1441;48.886;8.728;2022-08-03T02:36:38;20.00;76.40
2867;DHT22;1441;48.886;8.728;2022-08-03T02:39:06;20.00;76.30
2867;DHT22;1441;48.886;8.728;2022-08-03T02:41:46;19.90;76.70
2867;DHT22;1441;48.886;8.728;2022-08-03T02:44:13;19.90;76.80
2867;DHT22;1441;48.886;8.728;2022-08-03T02:46:44;20.00;76.70
2867;DHT22;1441;48.886;8.728;2022-08-03T02:49:12;20.10;76.30
2867;DHT22;1441;48.886;8.728;2022-08-03T02:51:39;20.10;76.30
2867;DHT22;1441;48.886;8.728;2022-08-03T02:54:06;19.90;76.70
2867;DHT22;1441;48.886;8.728;2022-08-03T02:56:34;19.80;77.30
2867;DHT22;1441;48.886;8.728;2022-08-03T02:59:00;19.90;77.20
2867;DHT22;1441;48.886;8.728;2022-08-03T03:01:28;20.00;76.50
2867;DHT22;1441;48.886;8.728;2022-08-03T03:03:56;20.00;76.20
2867;DHT22;1441;48.886;8.728;2022-08-03T03:06:25;19.90;76.70
2867;DHT22;1441;48.886;8.728;2022-08-03T03:08:52;19.80;77.00
2867;DHT22;1441;48.886;8.728;2022-08-03T03:11:20;19.90;76.90
2867;DHT22;1441;48.886;8.728;2022-08-03T03:13:47;19.90;76.90
2867;DHT22;1441;48.886;8.728;2022-08-03T03:16:14;19.90;76.80
2867;DHT22;1441;48.886;8.728;2022-08-03T03:18:42;19.90;77.00
2867;DHT22;1441;48.886;8.728;2022-08-03T03:21:09;19.80;77.00
2867;DHT22;1441;48.886;8.728;2022-08-03T03:23:37;19.80;77.10
2867;DHT22;1441;48.886;8.728;2022-08-03T03:26:04;19.80;77.20
2867;DHT22;1441;48.886;8.728;2022-08-03T03:28:30;19.70;77.30
2867;DHT22;1441;48.886;8.728;2022-08-03T03:30:57;19.60;77.60
2867;DHT22;1441;48.886;8.728;2022-08-03T03:33:23;19.60;77.30
2867;DHT22;1441;48.886;8.728;2022-08-03T03:35:49;19.50;77.70
2867;DHT22;1441;48.886;8.728;2022-08-03T03:38:16;19.50;78.00
2867;DHT22;1441;48.886;8.728;2022-08-03T03:40:42;19.50;77.70
2867;DHT22;1441;48.886;8.728;2022-08-03T03:43:09;19.60;77.40
2867;DHT22;1441;48.886;8.728;2022-08-03T03:45:35;19.60;77.60
2867;DHT22;1441;48.886;8.728;2022-08-03T03:48:03;19.50;77.80
2867;DHT22;1441;48.886;8.728;2022-08-03T03:50:30;19.40;77.70
2867;DHT22;1441;48.886;8.728;2022-08-03T03:52:56;19.30;77.90
2867;DHT22;1441;48.886;8.728;2022-08-03T03:55:22;19.30;78.20
2867;DHT22;1441;48.886;8.728;2022-08-03T03:57:48;19.40;78.00
2867;DHT22;1441;48.886;8.728;2022-08-03T04:00:16;19.40;78.10
2867;DHT22;1441;48.886;8.728;2022-08-03T04:02:42;19.50;77.60
2867;DHT22;1441;48.886;8.728;2022-08-03T04:05:08;19.50;77.50
2867;DHT22;1441;48.886;8.728;2022-08-03T04:08:08;19.70;77.10
2867;DHT22;1441;48.886;8.728;2022-08-03T04:13:52;19.50;77.70
2867;DHT22;1441;48.886;8.728;2022-08-03T04:16:21;19.50;78.00
2867;DHT22;1441;48.886;8.728;2022-08-03T04:19:08;19.40;77.60
2867;DHT22;1441;48.886;8.728;2022-08-03T04:21:37;19.40;77.80
2867;DHT22;1441;48.886;8.728;2022-08-03T04:24:07;19.40;77.90
2867;DHT22;1441;48.886;8.728;2022-08-03T04:26:36;19.40;78.10
2867;DHT22;1441;48.886;8.728;2022-08-03T04:29:05;19.30;78.20
2867;DHT22;1441;48.886;8.728;2022-08-03T04:31:31;19.30;78.00
2867;DHT22;1441;48.886;8.728;2022-08-03T04:33:58;19.40;78.10
2867;DHT22;1441;48.886;8.728;2022-08-03T04:36:29;19.30;78.30
2867;DHT22;1441;48.886;8.728;2022-08-03T04:39:09;19.40;78.20
2867;DHT22;1441;48.886;8.728;2022-08-03T04:41:38;19.40;78.40
2867;DHT22;1441;48.886;8.728;2022-08-03T04:44:04;19.30;78.10
2867;DHT22;1441;48.886;8.728;2022-08-03T04:46:37;19.40;78.00
2867;DHT22;1441;48.886;8.728;2022-08-03T04:49:05;19.40;78.60
2867;DHT22;1441;48.886;8.728;2022-08-03T04:51:31;19.40;78.40
2867;DHT22;1441;48.886;8.728;2022-08-03T04:53:59;19.50;78.80
2867;DHT22;1441;48.886;8.728;2022-08-03T04:56:25;19.50;82.60
2867;DHT22;1441;48.886;8.728;2022-08-03T04:58:51;19.50;82.10
2867;DHT22;1441;48.886;8.728;2022-08-03T05:01:17;19.50;83.10
2867;DHT22;1441;48.886;8.728;2022-08-03T05:03:45;19.40;82.40
2867;DHT22;1441;48.886;8.728;2022-08-03T05:06:10;19.50;82.20
2867;DHT22;1441;48.886;8.728;2022-08-03T05:08:36;19.50;81.90
2867;DHT22;1441;48.886;8.728;2022-08-03T05:11:01;19.50;82.20
2867;DHT22;1441;48.886;8.728;2022-08-03T05:13:27;19.60;81.60
2867;DHT22;1441;48.886;8.728;2022-08-03T05:15:53;19.70;82.30
2867;DHT22;1441;48.886;8.728;2022-08-03T05:18:18;19.70;82.20
2867;DHT22;1441;48.886;8.728;2022-08-03T05:20:44;19.70;82.10
2867;DHT22;1441;48.886;8.728;2022-08-03T05:23:09;19.70;82.60
2867;DHT22;1441;48.886;8.728;2022-08-03T05:25:35;19.70;82.40
2867;DHT22;1441;48.886;8.728;2022-08-03T05:28:00;19.70;82.30
2867;DHT22;1441;48.886;8.728;2022-08-03T05:30:26;19.80;81.70
2867;DHT22;1441;48.886;8.728;2022-08-03T05:32:52;19.80;82.20
2867;DHT22;1441;48.886;8.728;2022-08-03T05:35:17;19.90;82.40
2867;DHT22;1441;48.886;8.728;2022-08-03T05:37:43;20.00;82.20
2867;DHT22;1441;48.886;8.728;2022-08-03T05:40:09;20.10;81.30
2867;DHT22;1441;48.886;8.728;2022-08-03T05:42:38;20.20;80.50
2867;DHT22;1441;48.886;8.728;2022-08-03T05:45:04;20.40;80.20
2867;DHT22;1441;48.886;8.728;2022-08-03T05:47:43;20.50;79.90
2867;DHT22;1441;48.886;8.728;2022-08-03T05:50:12;20.90;79.00
2867;DHT22;1441;48.886;8.728;2022-08-03T05:52:39;22.20;74.90
2867;DHT22;1441;48.886;8.728;2022-08-03T05:55:05;23.70;70.60
2867;DHT22;1441;48.886;8.728;2022-08-03T05:57:31;25.00;66.90
2867;DHT22;1441;48.886;8.728;2022-08-03T05:59:57;26.00;64.20
2867;DHT22;1441;48.886;8.728;2022-08-03T06:02:23;26.60;62.30
2867;DHT22;1441;48.886;8.728;2022-08-03T06:04:48;27.20;61.30
2867;DHT22;1441;48.886;8.728;2022-08-03T06:07:14;27.70;60.10
2867;DHT22;1441;48.886;8.728;2022-08-03T06:09:39;28.30;59.20
2867;DHT22;1441;48.886;8.728;2022-08-03T06:12:06;28.70;58.00
2867;DHT22;1441;48.886;8.728;2022-08-03T06:14:32;29.00;57.10
2867;DHT22;1441;48.886;8.728;2022-08-03T06:16:57;29.30;56.80
2867;DHT22;1441;48.886;8.728;2022-08-03T06:19:23;29.70;55.60
2867;DHT22;1441;48.886;8.728;2022-08-03T06:21:49;30.10;55.20
2867;DHT22;1441;48.886;8.728;2022-08-03T06:24:15;30.00;55.50
2867;DHT22;1441;48.886;8.728;2022-08-03T06:26:41;29.60;56.20
2867;DHT22;1441;48.886;8.728;2022-08-03T06:29:06;28.90;56.90
2867;DHT22;1441;48.886;8.728;2022-08-03T06:31:32;28.10;58.60
2867;DHT22;1441;48.886;8.728;2022-08-03T06:33:58;27.60;59.90
2867;DHT22;1441;48.886;8.728;2022-08-03T06:36:23;27.30;60.40
2867;DHT22;1441;48.886;8.728;2022-08-03T06:38:50;27.10;61.50
2867;DHT22;1441;48.886;8.728;2022-08-03T06:41:15;26.90;62.20
2867;DHT22;1441;48.886;8.728;2022-08-03T06:43:41;27.00;61.20
2867;DHT22;1441;48.886;8.728;2022-08-03T06:46:06;27.20;60.80
2867;DHT22;1441;48.886;8.728;2022-08-03T06:48:32;27.30;60.90
2867;DHT22;1441;48.886;8.728;2022-08-03T06:50:58;27.60;60.00
2867;DHT22;1441;48.886;8.728;2022-08-03T06:53:23;27.60;60.30
2867;DHT22;1441;48.886;8.728;2022-08-03T06:55:49;27.80;61.00
2867;DHT22;1441;48.886;8.728;2022-08-03T06:58:14;27.80;59.80
2867;DHT22;1441;48.886;8.728;2022-08-03T07:00:40;27.90;59.80
2867;DHT22;1441;48.886;8.728;2022-08-03T07:03:06;27.80;60.70
2867;DHT22;1441;48.886;8.728;2022-08-03T07:05:31;27.70;60.70
2867;DHT22;1441;48.886;8.728;2022-08-03T07:07:59;27.60;60.50
2867;DHT22;1441;48.886;8.728;2022-08-03T07:10:26;27.50;61.90
2867;DHT22;1441;48.886;8.728;2022-08-03T07:12:52;27.70;60.80
2867;DHT22;1441;48.886;8.728;2022-08-03T07:15:18;27.80;60.60
2867;DHT22;1441;48.886;8.728;2022-08-03T07:17:44;27.80;61.00
2867;DHT22;1441;48.886;8.728;2022-08-03T07:20:11;28.10;61.20
2867;DHT22;1441;48.886;8.728;2022-08-03T07:22:38;28.00;61.20
2867;DHT22;1441;48.886;8.728;2022-08-03T07:25:04;28.40;60.50
2867;DHT22;1441;48.886;8.728;2022-08-03T07:27:30;28.80;57.90
2867;DHT22;1441;48.886;8.728;2022-08-03T07:29:58;29.00;57.00
2867;DHT22;1441;48.886;8.728;2022-08-03T07:32:24;29.10;56.70
2867;DHT22;1441;48.886;8.728;2022-08-03T07:34:50;29.00;56.60
2867;DHT22;1441;48.886;8.728;2022-08-03T07:37:15;29.00;56.80
2867;DHT22;1441;48.886;8.728;2022-08-03T07:39:41;28.90;57.30
2867;DHT22;1441;48.886;8.728;2022-08-03T07:42:07;28.80;57.80
2867;DHT22;1441;48.886;8.728;2022-08-03T07:44:32;28.90;57.40
2867;DHT22;1441;48.886;8.728;2022-08-03T07:46:58;29.20;57.00
2867;DHT22;1441;48.886;8.728;2022-08-03T07:49:24;29.30;56.60
2867;DHT22;1441;48.886;8.728;2022-08-03T07:51:49;29.50;56.10
2867;DHT22;1441;48.886;8.728;2022-08-03T07:54:35;29.60;56.20
2867;DHT22;1441;48.886;8.728;2022-08-03T07:57:00;29.60;56.70
2867;DHT22;1441;48.886;8.728;2022-08-03T07:59:26;29.70;55.40
2867;DHT22;1441;48.886;8.728;2022-08-03T08:01:52;29.70;55.70
2867;DHT22;1441;48.886;8.728;2022-08-03T08:04:18;29.90;55.10
2867;DHT22;1441;48.886;8.728;2022-08-03T08:06:44;29.90;55.20
2867;DHT22;1441;48.886;8.728;2022-08-03T08:09:09;30.00;54.60
2867;DHT22;1441;48.886;8.728;2022-08-03T08:11:36;30.00;54.70
2867;DHT22;1441;48.886;8.728;2022-08-03T08:14:02;30.00;54.60
2867;DHT22;1441;48.886;8.728;2022-08-03T08:16:28;29.80;54.90
2867;DHT22;1441;48.886;8.728;2022-08-03T08:18:54;29.70;55.20
2867;DHT22;1441;48.886;8.728;2022-08-03T08:21:19;29.80;55.20
2867;DHT22;1441;48.886;8.728;2022-08-03T08:23:45;30.00;54.70
2867;DHT22;1441;48.886;8.728;2022-08-03T08:26:11;30.10;55.70
2867;DHT22;1441;48.886;8.728;2022-08-03T08:28:37;30.40;55.70
2867;DHT22;1441;48.886;8.728;2022-08-03T08:31:03;30.80;54.30
2867;DHT22;1441;48.886;8.728;2022-08-03T08:33:28;30.80;53.10
2867;DHT22;1441;48.886;8.728;2022-08-03T08:35:54;31.00;53.20
2867;DHT22;1441;48.886;8.728;2022-08-03T08:38:21;31.00;53.40
2867;DHT22;1441;48.886;8.728;2022-08-03T08:40:48;31.10;53.40
2867;DHT22;1441;48.886;8.728;2022-08-03T08:43:13;31.20;52.50
2867;DHT22;1441;48.886;8.728;2022-08-03T08:45:40;31.20;52.40
2867;DHT22;1441;48.886;8.728;2022-08-03T08:48:06;31.10;52.60
2867;DHT22;1441;48.886;8.728;2022-08-03T08:50:34;31.20;52.80
2867;DHT22;1441;48.886;8.728;2022-08-03T08:53:01;31.50;52.40
2867;DHT22;1441;48.886;8.728;2022-08-03T08:55:28;31.50;51.50
2867;DHT22;1441;48.886;8.728;2022-08-03T08:57:59;31.60;51.90
2867;DHT22;1441;48.886;8.728;2022-08-03T09:00:26;31.80;53.10
2867;DHT22;1441;48.886;8.728;2022-08-03T09:02:51;31.90;52.50
2867;DHT22;1441;48.886;8.728;2022-08-03T09:05:18;32.00;51.60
2867;DHT22;1441;48.886;8.728;2022-08-03T09:07:46;32.00;53.00
2867;DHT22;1441;48.886;8.728;2022-08-03T09:10:13;32.00;52.60
2867;DHT22;1441;48.886;8.728;2022-08-03T09:12:46;31.90;52.00
2867;DHT22;1441;48.886;8.728;2022-08-03T09:15:29;32.10;51.20
2867;DHT22;1441;48.886;8.728;2022-08-03T09:18:00;32.30;51.80
2867;DHT22;1441;48.886;8.728;2022-08-03T09:20:29;32.50;50.40
2867;DHT22;1441;48.886;8.728;2022-08-03T09:23:05;32.50;50.40
2867;DHT22;1441;48.886;8.728;2022-08-03T09:25:34;32.40;52.00
2867;DHT22;1441;48.886;8.728;2022-08-03T09:28:09;32.50;51.00
2867;DHT22;1441;48.886;8.728;2022-08-03T09:30:56;32.80;50.70
2867;DHT22;1441;48.886;8.728;2022-08-03T09:33:21;33.00;50.20
2867;DHT22;1441;48.886;8.728;2022-08-03T09:35:47;33.30;49.30
2867;DHT22;1441;48.886;8.728;2022-08-03T09:38:21;33.10;48.70
2867;DHT22;1441;48.886;8.728;2022-08-03T09:40:49;32.90;49.40
2867;DHT22;1441;48.886;8.728;2022-08-03T09:43:15;32.70;49.20
2867;DHT22;1441;48.886;8.728;2022-08-03T09:45:41;32.70;49.10
2867;DHT22;1441;48.886;8.728;2022-08-03T09:48:22;32.90;48.80
2867;DHT22;1441;48.886;8.728;2022-08-03T09:50:56;32.90;49.30
2867;DHT22;1441;48.886;8.728;2022-08-03T09:53:22;33.30;48.60
2867;DHT22;1441;48.886;8.728;2022-08-03T09:56:00;33.60;47.60
2867;DHT22;1441;48.886;8.728;2022-08-03T09:58:29;33.70;47.20
2867;DHT22;1441;48.886;8.728;2022-08-03T10:01:02;33.10;48.00
2867;DHT22;1441;48.886;8.728;2022-08-03T10:03:31;33.50;48.80
2867;DHT22;1441;48.886;8.728;2022-08-03T10:05:57;34.20;47.20
2867;DHT22;1441;48.886;8.728;2022-08-03T10:08:23;34.80;46.70
2867;DHT22;1441;48.886;8.728;2022-08-03T10:10:51;35.50;44.20
2867;DHT22;1441;48.886;8.728;2022-08-03T10:13:20;35.90;44.10
2867;DHT22;1441;48.886;8.728;2022-08-03T10:15:46;36.30;44.50
2867;DHT22;1441;48.886;8.728;2022-08-03T10:18:12;35.90;44.30
2867;DHT22;1441;48.886;8.728;2022-08-03T10:20:58;36.20;44.90
2867;DHT22;1441;48.886;8.728;2022-08-03T10:23:26;36.20;43.90
2867;DHT22;1441;48.886;8.728;2022-08-03T10:25:56;36.20;45.20
2867;DHT22;1441;48.886;8.728;2022-08-03T10:28:23;36.00;44.20
2867;DHT22;1441;48.886;8.728;2022-08-03T10:30:52;35.70;45.30
2867;DHT22;1441;48.886;8.728;2022-08-03T10:33:26;35.40;45.60
2867;DHT22;1441;48.886;8.728;2022-08-03T10:35:55;35.50;46.10
2867;DHT22;1441;48.886;8.728;2022-08-03T10:38:36;35.80;43.20
2867;DHT22;1441;48.886;8.728;2022-08-03T10:41:02;35.40;43.60
2867;DHT22;1441;48.886;8.728;2022-08-03T10:43:44;35.40;43.40
2867;DHT22;1441;48.886;8.728;2022-08-03T10:46:14;35.30;43.60
2867;DHT22;1441;48.886;8.728;2022-08-03T10:48:41;35.40;42.90
2867;DHT22;1441;48.886;8.728;2022-08-03T10:51:07;35.40;43.40
2867;DHT22;1441;48.886;8.728;2022-08-03T10:53:41;35.60;42.90
2867;DHT22;1441;48.886;8.728;2022-08-03T10:59:18;36.10;43.80
2867;DHT22;1441;48.886;8.728;2022-08-03T11:01:53;36.20;42.70
2867;DHT22;1441;48.886;8.728;2022-08-03T11:04:19;36.30;43.30
2867;DHT22;1441;48.886;8.728;2022-08-03T11:06:46;36.40;43.10
2867;DHT22;1441;48.886;8.728;2022-08-03T11:09:13;36.30;41.20
2867;DHT22;1441;48.886;8.728;2022-08-03T11:11:40;35.60;41.80
2867;DHT22;1441;48.886;8.728;2022-08-03T11:14:13;35.20;42.10
2867;DHT22;1441;48.886;8.728;2022-08-03T11:16:48;34.80;42.80
2867;DHT22;1441;48.886;8.728;2022-08-03T11:19:18;34.70;42.60
2867;DHT22;1441;48.886;8.728;2022-08-03T11:27:20;35.70;45.00
2867;DHT22;1441;48.886;8.728;2022-08-03T11:40:48;36.90;42.80
2867;DHT22;1441;48.886;8.728;2022-08-03T11:46:08;37.10;40.30
2867;DHT22;1441;48.886;8.728;2022-08-03T11:48:49;37.20;39.80
2867;DHT22;1441;48.886;8.728;2022-08-03T11:51:26;37.10;39.50
2867;DHT22;1441;48.886;8.728;2022-08-03T11:54:02;36.90;40.90
2867;DHT22;1441;48.886;8.728;2022-08-03T11:56:42;36.90;40.80
2867;DHT22;1441;48.886;8.728;2022-08-03T11:59:08;36.50;41.60
2867;DHT22;1441;48.886;8.728;2022-08-03T12:01:34;36.50;41.10
2867;DHT22;1441;48.886;8.728;2022-08-03T12:04:04;36.60;41.00
2867;DHT22;1441;48.886;8.728;2022-08-03T12:06:30;36.90;40.50
2867;DHT22;1441;48.886;8.728;2022-08-03T12:08:55;37.10;40.90
2867;DHT22;1441;48.886;8.728;2022-08-03T12:11:21;37.10;42.30
2867;DHT22;1441;48.886;8.728;2022-08-03T12:13:49;37.20;41.70
2867;DHT22;1441;48.886;8.728;2022-08-03T12:16:22;37.30;40.50
2867;DHT22;1441;48.886;8.728;2022-08-03T12:19:00;37.20;41.00
2867;DHT22;1441;48.886;8.728;2022-08-03T12:21:27;37.00;40.00
2867;DHT22;1441;48.886;8.728;2022-08-03T12:24:04;36.50;40.70
2867;DHT22;1441;48.886;8.728;2022-08-03T12:26:41;36.10;41.30
2867;DHT22;1441;48.886;8.728;2022-08-03T12:29:07;35.70;41.90
2867;DHT22;1441;48.886;8.728;2022-08-03T12:31:32;35.80;42.10
2867;DHT22;1441;48.886;8.728;2022-08-03T12:34:00;35.90;42.40
2867;DHT22;1441;48.886;8.728;2022-08-03T12:36:28;36.00;42.30
2867;DHT22;1441;48.886;8.728;2022-08-03T12:39:12;36.10;43.40
2867;DHT22;1441;48.886;8.728;2022-08-03T12:41:38;36.40;42.00
2867;DHT22;1441;48.886;8.728;2022-08-03T12:44:06;36.50;41.30
2867;DHT22;1441;48.886;8.728;2022-08-03T12:46:37;36.30;41.70
2867;DHT22;1441;48.886;8.728;2022-08-03T12:49:11;36.20;41.70
2867;DHT22;1441;48.886;8.728;2022-08-03T12:54:29;36.10;41.50
2867;DHT22;1441;48.886;8.728;2022-08-03T12:59:41;36.10;41.40
2867;DHT22;1441;48.886;8.728;2022-08-03T13:02:14;36.10;42.60
2867;DHT22;1441;48.886;8.728;2022-08-03T13:04:40;36.10;41.20
2867;DHT22;1441;48.886;8.728;2022-08-03T13:07:07;35.60;41.40
2867;DHT22;1441;48.886;8.728;2022-08-03T13:10:00;35.60;43.30
2867;DHT22;1441;48.886;8.728;2022-08-03T13:12:26;35.90;42.90
2867;DHT22;1441;48.886;8.728;2022-08-03T13:14:57;36.20;42.60
2867;DHT22;1441;48.886;8.728;2022-08-03T13:17:23;36.40;41.60
2867;DHT22;1441;48.886;8.728;2022-08-03T13:19:50;36.40;42.60
2867;DHT22;1441;48.886;8.728;2022-08-03T13:22:24;36.50;41.80
2867;DHT22;1441;48.886;8.728;2022-08-03T13:24:51;36.80;41.50
2867;DHT22;1441;48.886;8.728;2022-08-03T13:27:18;36.90;41.40
2867;DHT22;1441;48.886;8.728;2022-08-03T13:29:43;36.80;42.40
2867;DHT22;1441;48.886;8.728;2022-08-03T13:32:09;36.90;42.10
2867;DHT22;1441;48.886;8.728;2022-08-03T13:34:35;36.90;42.30
2867;DHT22;1441;48.886;8.728;2022-08-03T13:37:01;36.70;41.80
2867;DHT22;1441;48.886;8.728;2022-08-03T13:39:27;36.70;40.80
2867;DHT22;1441;48.886;8.728;2022-08-03T13:41:53;36.60;41.10
2867;DHT22;1441;48.886;8.728;2022-08-03T13:44:18;36.70;42.00
2867;DHT22;1441;48.886;8.728;2022-08-03T13:46:44;36.70;40.90
2867;DHT22;1441;48.886;8.728;2022-08-03T13:49:10;36.70;41.60
2867;DHT22;1441;48.886;8.728;2022-08-03T13:51:36;36.80;42.00
2867;DHT22;1441;48.886;8.728;2022-08-03T13:54:02;36.90;41.40
2867;DHT22;1441;48.886;8.728;2022-08-03T13:56:28;36.90;40.80
2867;DHT22;1441;48.886;8.728;2022-08-03T13:58:54;36.90;41.80
2867;DHT22;1441;48.886;8.728;2022-08-03T14:01:20;37.00;40.30
2867;DHT22;1441;48.886;8.728;2022-08-03T14:03:46;37.00;41.20
2867;DHT22;1441;48.886;8.728;2022-08-03T14:06:14;36.90;41.70
2867;DHT22;1441;48.886;8.728;2022-08-03T14:08:40;37.00;41.10
2867;DHT22;1441;48.886;8.728;2022-08-03T14:11:06;37.20;40.90
2867;DHT22;1441;48.886;8.728;2022-08-03T14:13:31;37.10;41.00
2867;DHT22;1441;48.886;8.728;2022-08-03T14:15:57;37.20;40.50
2867;DHT22;1441;48.886;8.728;2022-08-03T14:18:23;37.00;41.60
2867;DHT22;1441;48.886;8.728;2022-08-03T14:20:48;37.00;41.60
2867;DHT22;1441;48.886;8.728;2022-08-03T14:23:14;37.00;41.60
2867;DHT22;1441;48.886;8.728;2022-08-03T14:25:41;37.00;41.70
2867;DHT22;1441;48.886;8.728;2022-08-03T14:28:07;36.90;41.90
2867;DHT22;1441;48.886;8.728;2022-08-03T14:30:32;37.00;42.30
2867;DHT22;1441;48.886;8.728;2022-08-03T14:32:58;36.90;42.20
2867;DHT22;1441;48.886;8.728;2022-08-03T14:35:24;36.80;41.90
2867;DHT22;1441;48.886;8.728;2022-08-03T14:37:49;36.90;40.70
2867;DHT22;1441;48.886;8.728;2022-08-03T14:40:16;36.90;41.80
2867;DHT22;1441;48.886;8.728;2022-08-03T14:42:42;37.00;40.50
2867;DHT22;1441;48.886;8.728;2022-08-03T14:45:08;37.10;40.40
2867;DHT22;1441;48.886;8.728;2022-08-03T14:47:33;37.20;40.90
2867;DHT22;1441;48.886;8.728;2022-08-03T14:49:59;37.10;40.80
2867;DHT22;1441;48.886;8.728;2022-08-03T14:52:25;37.10;41.00
2867;DHT22;1441;48.886;8.728;2022-08-03T14:54:50;37.00;41.10
2867;DHT22;1441;48.886;8.728;2022-08-03T14:57:16;37.00;41.50
2867;DHT22;1441;48.886;8.728;2022-08-03T14:59:41;37.00;40.10
2867;DHT22;1441;48.886;8.728;2022-08-03T15:02:07;36.90;40.60
2867;DHT22;1441;48.886;8.728;2022-08-03T15:04:33;36.90;41.10
2867;DHT22;1441;48.886;8.728;2022-08-03T15:06:58;36.80;41.10
2867;DHT22;1441;48.886;8.728;2022-08-03T15:09:24;36.80;40.70
2867;DHT22;1441;48.886;8.728;2022-08-03T15:11:50;36.80;41.00
2867;DHT22;1441;48.886;8.728;2022-08-03T15:14:15;36.70;41.30
2867;DHT22;1441;48.886;8.728;2022-08-03T15:16:41;36.70;41.40
2867;DHT22;1441;48.886;8.728;2022-08-03T15:19:06;36.70;41.80
2867;DHT22;1441;48.886;8.728;2022-08-03T15:21:32;36.60;41.40
2867;DHT22;1441;48.886;8.728;2022-08-03T15:23:58;36.60;41.10
2867;DHT22;1441;48.886;8.728;2022-08-03T15:26:23;36.60;41.00
2867;DHT22;1441;48.886;8.728;2022-08-03T15:28:49;36.40;41.10
2867;DHT22;1441;48.886;8.728;2022-08-03T15:31:19;36.40;41.10
2867;DHT22;1441;48.886;8.728;2022-08-03T15:33:45;36.30;41.60
2867;DHT22;1441;48.886;8.728;2022-08-03T15:36:11;36.30;41.60
2867;DHT22;1441;48.886;8.728;2022-08-03T15:38:36;36.40;41.60
2867;DHT22;1441;48.886;8.728;2022-08-03T15:41:02;36.30;42.60
2867;DHT22;1441;48.886;8.728;2022-08-03T15:43:27;36.30;40.90
2867;DHT22;1441;48.886;8.728;2022-08-03T15:45:53;36.00;41.70
2867;DHT22;1441;48.886;8.728;2022-08-03T15:48:19;35.90;42.10
2867;DHT22;1441;48.886;8.728;2022-08-03T15:50:44;36.00;42.10
2867;DHT22;1441;48.886;8.728;2022-08-03T15:53:10;35.90;41.80
2867;DHT22;1441;48.886;8.728;2022-08-03T15:55:36;36.00;42.40
2867;DHT22;1441;48.886;8.728;2022-08-03T15:58:01;35.90;42.00
2867;DHT22;1441;48.886;8.728;2022-08-03T16:00:27;35.90;42.70
2867;DHT22;1441;48.886;8.728;2022-08-03T16:02:55;35.80;43.40
2867;DHT22;1441;48.886;8.728;2022-08-03T16:05:21;35.90;42.50
2867;DHT22;1441;48.886;8.728;2022-08-03T16:07:46;35.90;42.30
2867;DHT22;1441;48.886;8.728;2022-08-03T16:10:14;35.90;42.30
2867;DHT22;1441;48.886;8.728;2022-08-03T16:12:40;35.80;42.90
2867;DHT22;1441;48.886;8.728;2022-08-03T16:15:08;35.80;43.00
2867;DHT22;1441;48.886;8.728;2022-08-03T16:17:34;35.70;43.90
2867;DHT22;1441;48.886;8.728;2022-08-03T16:19:59;35.70;42.70
2867;DHT22;1441;48.886;8.728;2022-08-03T16:22:25;35.70;42.50
2867;DHT22;1441;48.886;8.728;2022-08-03T16:24:51;35.70;43.20
2867;DHT22;1441;48.886;8.728;2022-08-03T16:27:17;35.50;43.20
2867;DHT22;1441;48.886;8.728;2022-08-03T16:29:43;35.50;43.80
2867;DHT22;1441;48.886;8.728;2022-08-03T16:32:09;35.50;43.60
2867;DHT22;1441;48.886;8.728;2022-08-03T16:34:36;35.50;43.10
2867;DHT22;1441;48.886;8.728;2022-08-03T16:37:02;35.40;44.00
2867;DHT22;1441;48.886;8.728;2022-08-03T16:39:28;35.50;43.00
2867;DHT22;1441;48.886;8.728;2022-08-03T16:41:54;35.50;43.00
2867;DHT22;1441;48.886;8.728;2022-08-03T16:44:20;35.30;44.40
2867;DHT22;1441;48.886;8.728;2022-08-03T16:46:46;35.30;43.10
2867;DHT22;1441;48.886;8.728;2022-08-03T16:49:11;35.30;43.30